Time;durP1;ratioP1;P1;durP2;ratioP2;P2;SDS_P1;SDS_P2;PMS_P1;PMS_P2;Temp;Humidity;BMP_temperature;BMP_pressure;BME280_temperature;BME280_humidity;BME280_pressure;Samples;Min_cycle;Max_cycle;Signal;HPM_P1;HPM_P2
2021/10/21 00:02:02;;;;;;;3.00;2.70;;;17.00;99.90;;;;;;5028277;28;20255;-71
2021/10/21 00:04:29;;;;;;;3.73;3.43;;;17.00;99.90;;;;;;5028373;28;20212;-71
2021/10/21 00:06:57;;;;;;;3.67;3.07;;;16.90;99.90;;;;;;5028343;28;20223;-70
2021/10/21 00:09:24;;;;;;;3.17;2.97;;;16.90;99.90;;;;;;5027907;28;20225;-70
2021/10/21 00:11:51;;;;;;;4.73;3.13;;;16.90;99.90;;;;;;5028285;28;20208;-70
2021/10/21 00:14:17;;;;;;;3.43;3.07;;;16.90;99.90;;;;;;5028154;28;20213;-70
2021/10/21 00:16:44;;;;;;;3.33;3.13;;;16.90;99.90;;;;;;5027820;28;20686;-70
2021/10/21 00:19:10;;;;;;;3.37;3.07;;;16.90;99.90;;;;;;5028140;28;20209;-71
2021/10/21 00:21:37;;;;;;;3.50;3.20;;;16.80;99.90;;;;;;5027965;28;20267;-70
2021/10/21 00:24:05;;;;;;;4.10;3.27;;;16.80;99.90;;;;;;5027923;28;20200;-70
2021/10/21 00:26:32;;;;;;;3.70;3.40;;;16.80;99.90;;;;;;5027814;28;20235;-71
2021/10/21 00:28:58;;;;;;;4.30;3.20;;;16.80;99.90;;;;;;5029713;28;20235;-70
2021/10/21 00:31:25;;;;;;;3.10;2.90;;;16.80;99.90;;;;;;5031770;28;20221;-70
2021/10/21 00:33:52;;;;;;;4.80;3.47;;;16.80;99.90;;;;;;5031687;28;20204;-70
2021/10/21 00:36:18;;;;;;;3.37;3.17;;;16.80;99.90;;;;;;5032007;28;20205;-69
2021/10/21 00:38:45;;;;;;;3.40;3.07;;;16.70;99.90;;;;;;5031837;28;20578;-70
2021/10/21 00:41:13;;;;;;;3.47;3.17;;;16.70;99.90;;;;;;5031815;28;20274;-70
2021/10/21 00:43:41;;;;;;;3.10;2.90;;;16.70;99.90;;;;;;5031368;28;20687;-70
2021/10/21 00:46:10;;;;;;;3.73;3.43;;;16.70;99.90;;;;;;5031383;28;20318;-70
2021/10/21 00:48:37;;;;;;;3.10;2.90;;;16.70;99.90;;;;;;5031708;28;20208;-70
2021/10/21 00:51:06;;;;;;;4.17;3.73;;;16.70;99.90;;;;;;5031497;28;20236;-70
2021/10/21 00:53:34;;;;;;;3.80;3.50;;;16.70;99.90;;;;;;5031570;28;20283;-70
2021/10/21 00:56:04;;;;;;;4.07;3.47;;;16.70;99.90;;;;;;5031415;28;20231;-70
2021/10/21 00:58:32;;;;;;;3.97;3.67;;;16.70;99.90;;;;;;5031561;28;20244;-70
2021/10/21 01:01:00;;;;;;;4.03;3.73;;;16.60;99.90;;;;;;5030905;28;20240;-70
2021/10/21 01:03:27;;;;;;;4.70;3.30;;;16.70;99.90;;;;;;5031404;28;20244;-70
2021/10/21 01:05:54;;;;;;;4.40;3.70;;;16.60;99.90;;;;;;5031263;28;20275;-70
2021/10/21 01:08:21;;;;;;;3.83;3.23;;;16.60;99.90;;;;;;5031424;28;20262;-70
2021/10/21 01:10:48;;;;;;;4.83;3.40;;;16.60;99.90;;;;;;5031158;28;20233;-70
2021/10/21 01:13:15;;;;;;;4.13;3.40;;;16.60;99.90;;;;;;5031232;28;20201;-71
2021/10/21 01:15:43;;;;;;;3.50;3.30;;;16.60;99.90;;;;;;5012964;28;20214;-72
2021/10/21 01:18:09;;;;;;;4.03;3.73;;;16.60;99.90;;;;;;5011506;28;20205;-71
2021/10/21 01:20:37;;;;;;;4.80;3.87;;;16.60;99.90;;;;;;5011266;28;20255;-71
2021/10/21 01:23:04;;;;;;;3.97;3.27;;;16.60;99.90;;;;;;5011236;28;20668;-71
2021/10/21 01:25:31;;;;;;;3.47;3.27;;;16.60;99.90;;;;;;5010944;28;20669;-71
2021/10/21 01:27:58;;;;;;;4.03;3.67;;;16.60;99.90;;;;;;5011313;28;20214;-71
2021/10/21 01:30:26;;;;;;;3.40;3.17;;;16.60;99.90;;;;;;5010896;28;20284;-71
2021/10/21 01:32:55;;;;;;;3.50;3.30;;;16.60;99.90;;;;;;5011158;28;20253;-71
2021/10/21 01:35:23;;;;;;;3.50;3.20;;;16.60;99.90;;;;;;5011060;28;20209;-70
2021/10/21 01:37:51;;;;;;;3.93;3.20;;;16.50;99.90;;;;;;5011095;28;20210;-70
2021/10/21 01:40:19;;;;;;;4.37;3.23;;;16.50;99.90;;;;;;5010098;28;20745;-71
2021/10/21 01:42:46;;;;;;;3.40;3.20;;;16.60;99.90;;;;;;5010567;28;20268;-71
2021/10/21 01:45:18;;;;;;;3.63;3.30;;;16.60;99.90;;;;;;5010896;28;20205;-71
2021/10/21 01:47:45;;;;;;;3.67;3.47;;;16.50;99.90;;;;;;5010893;28;20249;-71
2021/10/21 01:50:12;;;;;;;3.47;3.17;;;16.50;99.90;;;;;;5010853;28;20280;-71
2021/10/21 01:52:41;;;;;;;3.63;3.33;;;16.60;99.90;;;;;;5010927;28;20213;-71
2021/10/21 01:55:10;;;;;;;3.63;3.43;;;16.50;99.90;;;;;;5010589;28;20237;-71
2021/10/21 01:57:37;;;;;;;3.43;3.13;;;16.50;99.90;;;;;;5010713;28;20210;-71
2021/10/21 02:00:05;;;;;;;3.23;3.03;;;16.50;99.90;;;;;;5010563;28;20308;-71
2021/10/21 02:02:32;;;;;;;3.97;3.50;;;16.50;99.90;;;;;;5010616;28;20228;-71
2021/10/21 02:04:58;;;;;;;3.30;3.10;;;16.50;99.90;;;;;;5010402;28;20232;-71
2021/10/21 02:07:25;;;;;;;3.27;2.87;;;16.50;99.90;;;;;;5010528;28;20214;-70
2021/10/21 02:09:51;;;;;;;3.27;3.07;;;16.40;99.90;;;;;;5009181;28;20295;-70
2021/10/21 02:12:21;;;;;;;3.23;2.83;;;16.50;99.90;;;;;;5009972;28;20268;-71
2021/10/21 02:14:48;;;;;;;2.83;2.70;;;16.50;99.90;;;;;;5010200;28;20291;-70
2021/10/21 02:17:14;;;;;;;4.47;2.67;;;16.50;99.90;;;;;;5010074;28;20252;-70
2021/10/21 02:19:41;;;;;;;2.67;2.50;;;16.50;99.90;;;;;;5010363;28;20260;-70
2021/10/21 02:22:08;;;;;;;2.90;2.73;;;16.50;99.90;;;;;;5009635;28;20248;-70
2021/10/21 02:24:35;;;;;;;2.70;2.50;;;16.50;99.90;;;;;;5010053;28;20236;-69
2021/10/21 02:27:01;;;;;;;2.77;2.57;;;16.50;99.90;;;;;;5011597;28;20205;-69
2021/10/21 02:29:29;;;;;;;2.60;2.40;;;16.50;99.90;;;;;;5022452;28;20206;-70
2021/10/21 02:31:56;;;;;;;2.87;2.67;;;16.50;99.90;;;;;;5023825;28;20316;-70
2021/10/21 02:34:22;;;;;;;2.40;2.20;;;16.50;99.90;;;;;;5027266;28;20211;-70
2021/10/21 02:36:49;;;;;;;2.90;2.70;;;16.50;99.90;;;;;;5027581;28;20213;-70
2021/10/21 02:39:16;;;;;;;2.67;2.47;;;16.60;99.90;;;;;;5011486;28;20241;-70
2021/10/21 02:41:42;;;;;;;2.60;2.40;;;16.50;99.90;;;;;;5007591;28;20205;-69
2021/10/21 02:44:09;;;;;;;2.57;2.33;;;16.50;99.90;;;;;;5007270;28;20229;-69
2021/10/21 02:46:37;;;;;;;2.30;2.20;;;16.50;99.90;;;;;;5006756;28;20671;-70
2021/10/21 02:49:05;;;;;;;2.20;2.10;;;16.50;99.90;;;;;;5007174;28;20249;-69
2021/10/21 02:51:31;;;;;;;2.00;1.90;;;16.50;99.90;;;;;;5007304;28;20283;-68
2021/10/21 02:53:58;;;;;;;2.10;2.00;;;16.50;99.90;;;;;;5007231;28;20275;-69
2021/10/21 02:56:25;;;;;;;2.13;2.03;;;16.50;99.90;;;;;;5007296;28;20206;-70
2021/10/21 02:58:51;;;;;;;3.87;2.20;;;16.50;99.90;;;;;;5007070;28;20821;-70
2021/10/21 03:01:18;;;;;;;2.80;1.90;;;16.50;99.90;;;;;;5006970;28;20727;-70
2021/10/21 03:03:46;;;;;;;2.00;1.80;;;16.50;99.90;;;;;;5015787;28;20250;-69
2021/10/21 03:06:13;;;;;;;3.17;1.80;;;16.50;99.90;;;;;;5045548;28;20208;-69
2021/10/21 03:08:39;;;;;;;2.30;1.90;;;16.50;99.90;;;;;;5045992;28;20248;-70
2021/10/21 03:11:06;;;;;;;2.57;1.80;;;16.50;99.90;;;;;;5044867;28;20785;-70
2021/10/21 03:13:33;;;;;;;3.27;2.20;;;16.50;99.90;;;;;;5045811;28;20701;-70
2021/10/21 03:16:00;;;;;;;2.07;1.83;;;16.50;99.90;;;;;;5022588;28;20209;-70
2021/10/21 03:18:27;;;;;;;3.90;1.90;;;16.40;99.90;;;;;;5007616;28;20293;-69
2021/10/21 03:20:55;;;;;;;2.13;1.73;;;16.40;99.90;;;;;;5008282;28;20221;-70
2021/10/21 03:23:24;;;;;;;1.80;1.70;;;16.50;99.90;;;;;;5009073;28;20217;-70
2021/10/21 03:25:51;;;;;;;2.33;1.83;;;16.50;99.90;;;;;;5008982;28;20213;-70
2021/10/21 03:28:18;;;;;;;1.90;1.80;;;16.50;99.90;;;;;;5008988;28;20209;-70
2021/10/21 03:30:44;;;;;;;1.97;1.80;;;16.50;99.90;;;;;;5008834;28;20330;-70
2021/10/21 03:33:11;;;;;;;2.00;1.70;;;16.50;99.90;;;;;;5008891;28;20209;-70
2021/10/21 03:35:38;;;;;;;1.80;1.70;;;16.50;99.90;;;;;;5008942;28;20245;-70
2021/10/21 03:38:06;;;;;;;1.63;1.60;;;16.50;99.90;;;;;;5008950;28;20237;-70
2021/10/21 03:40:33;;;;;;;1.97;1.87;;;16.50;99.90;;;;;;5008602;28;20213;-70
2021/10/21 03:42:59;;;;;;;2.10;2.00;;;16.50;99.90;;;;;;5008659;28;20272;-70
2021/10/21 03:45:26;;;;;;;2.17;1.77;;;16.50;99.90;;;;;;5008314;28;20704;-70
2021/10/21 03:47:53;;;;;;;2.00;1.90;;;16.50;99.90;;;;;;5008276;28;20708;-70
2021/10/21 03:50:19;;;;;;;2.00;1.90;;;16.50;99.90;;;;;;5008456;28;20229;-70
2021/10/21 03:52:46;;;;;;;2.00;1.90;;;16.50;99.90;;;;;;5008675;28;20205;-70
2021/10/21 03:55:14;;;;;;;1.90;1.80;;;16.50;99.90;;;;;;5008561;28;20664;-70
2021/10/21 03:57:40;;;;;;;3.23;1.90;;;16.50;99.90;;;;;;5008592;28;20257;-70
2021/10/21 04:00:08;;;;;;;2.23;1.77;;;16.50;99.90;;;;;;5008191;28;20287;-70
2021/10/21 04:02:37;;;;;;;1.80;1.70;;;16.50;99.90;;;;;;5008549;28;20220;-70
2021/10/21 04:05:04;;;;;;;1.57;1.47;;;16.50;99.90;;;;;;5007950;28;20226;-70
2021/10/21 04:07:31;;;;;;;1.93;1.70;;;16.50;99.90;;;;;;5008555;28;20209;-70
2021/10/21 04:09:58;;;;;;;1.40;1.30;;;16.50;99.90;;;;;;5008362;28;20237;-70
2021/10/21 04:12:28;;;;;;;1.20;1.20;;;16.50;99.90;;;;;;5008325;28;20275;-70
2021/10/21 04:14:54;;;;;;;1.87;1.40;;;16.60;99.90;;;;;;5008310;28;20197;-70
2021/10/21 04:17:21;;;;;;;3.33;1.67;;;16.50;99.90;;;;;;5008085;28;21036;-70
2021/10/21 04:19:48;;;;;;;2.53;1.57;;;16.50;99.90;;;;;;5008118;28;20213;-70
2021/10/21 04:22:15;;;;;;;1.70;1.20;;;16.20;99.90;;;;;;5008297;28;20225;-70
2021/10/21 04:24:41;;;;;;;1.00;1.00;;;16.10;99.90;;;;;;5008003;28;20244;-70
2021/10/21 04:27:08;;;;;;;3.13;1.40;;;16.00;99.90;;;;;;5008246;28;20213;-70
2021/10/21 04:29:36;;;;;;;1.07;1.07;;;16.10;99.90;;;;;;5008107;28;20210;-70
2021/10/21 04:32:04;;;;;;;3.50;0.90;;;16.10;99.90;;;;;;5008037;28;20309;-70
2021/10/21 04:34:30;;;;;;;1.93;0.90;;;16.00;99.90;;;;;;5008252;28;20209;-70
2021/10/21 04:36:57;;;;;;;0.87;0.87;;;16.00;99.90;;;;;;5008031;28;20245;-70
2021/10/21 04:39:23;;;;;;;1.07;1.00;;;16.00;99.90;;;;;;5007802;28;20553;-70
2021/10/21 04:41:50;;;;;;;1.30;1.20;;;16.10;99.90;;;;;;5007862;28;20279;-70
2021/10/21 04:44:17;;;;;;;1.50;1.00;;;16.10;99.90;;;;;;5008212;28;20623;-70
2021/10/21 04:46:44;;;;;;;0.73;0.73;;;16.10;99.90;;;;;;5008234;28;20271;-70
2021/10/21 04:49:11;;;;;;;0.80;0.77;;;16.10;99.90;;;;;;5007992;28;20241;-70
2021/10/21 04:51:38;;;;;;;0.70;0.70;;;16.10;99.90;;;;;;5007909;28;20268;-70
2021/10/21 04:54:04;;;;;;;1.97;1.00;;;16.10;99.90;;;;;;5007613;28;20214;-69
2021/10/21 04:56:31;;;;;;;1.00;0.80;;;16.10;99.90;;;;;;5008027;28;20221;-70
2021/10/21 04:58:58;;;;;;;0.70;0.70;;;16.00;99.90;;;;;;5007777;28;20284;-70
2021/10/21 05:01:24;;;;;;;1.47;0.73;;;16.10;99.90;;;;;;5007620;28;20245;-70
2021/10/21 05:03:52;;;;;;;1.77;0.90;;;16.10;99.90;;;;;;5007691;28;20229;-70
2021/10/21 05:06:19;;;;;;;1.33;0.90;;;16.00;99.90;;;;;;5007982;28;20291;-70
2021/10/21 05:08:45;;;;;;;0.60;0.60;;;16.00;99.90;;;;;;5008072;28;20218;-71
2021/10/21 05:11:12;;;;;;;1.20;0.67;;;16.00;99.90;;;;;;5007829;28;20229;-70
2021/10/21 05:13:39;;;;;;;1.33;0.90;;;16.00;99.90;;;;;;5007963;28;20209;-70
2021/10/21 05:16:06;;;;;;;1.07;0.83;;;15.90;99.90;;;;;;5024683;28;20664;-70
2021/10/21 05:18:32;;;;;;;1.03;0.90;;;16.00;99.90;;;;;;5031117;28;20212;-70
2021/10/21 05:21:00;;;;;;;2.03;1.10;;;16.00;99.90;;;;;;5031061;28;20228;-70
2021/10/21 05:23:27;;;;;;;0.93;0.93;;;16.00;99.90;;;;;;5031417;28;20209;-71
2021/10/21 05:25:54;;;;;;;1.27;0.73;;;16.00;99.90;;;;;;5031005;28;20670;-70
2021/10/21 05:28:20;;;;;;;1.90;1.00;;;16.00;99.90;;;;;;5031280;28;20216;-70
2021/10/21 05:30:47;;;;;;;1.90;1.00;;;16.00;99.90;;;;;;5030708;28;20223;-70
2021/10/21 05:33:14;;;;;;;2.40;0.90;;;16.00;99.90;;;;;;5031067;28;20213;-70
2021/10/21 05:35:40;;;;;;;0.90;0.90;;;16.00;99.90;;;;;;5030891;28;20485;-70
2021/10/21 05:38:08;;;;;;;0.80;0.80;;;15.90;99.90;;;;;;5030726;28;20626;-70
2021/10/21 05:40:35;;;;;;;2.30;0.83;;;15.90;99.90;;;;;;5030775;28;20209;-70
2021/10/21 05:43:01;;;;;;;0.90;0.90;;;15.90;99.90;;;;;;5030377;28;20229;-70
2021/10/21 05:45:28;;;;;;;1.60;1.00;;;15.80;99.90;;;;;;5030545;28;20286;-71
2021/10/21 05:47:55;;;;;;;2.73;0.90;;;15.80;99.90;;;;;;5030196;28;20231;-70
2021/10/21 05:50:21;;;;;;;0.83;0.83;;;16.00;99.90;;;;;;5030707;28;20205;-70
2021/10/21 05:52:48;;;;;;;2.10;1.33;;;16.10;99.90;;;;;;5030579;28;20326;-70
2021/10/21 05:55:16;;;;;;;1.50;1.00;;;16.20;99.90;;;;;;5030627;28;20267;-70
2021/10/21 05:57:43;;;;;;;2.90;1.37;;;16.30;99.90;;;;;;5030361;28;20259;-70
2021/10/21 06:00:11;;;;;;;7.17;3.80;;;16.30;99.90;;;;;;5029823;28;20987;-70
2021/10/21 06:02:38;;;;;;;3.03;1.93;;;16.30;99.90;;;;;;5030384;28;20255;-70
2021/10/21 06:05:06;;;;;;;1.87;1.33;;;16.40;99.90;;;;;;5030190;28;20259;-70
2021/10/21 06:07:33;;;;;;;1.10;0.90;;;16.40;99.90;;;;;;5030301;28;20237;-70
2021/10/21 06:10:00;;;;;;;1.00;0.90;;;16.50;99.90;;;;;;5030116;28;20205;-70
2021/10/21 06:12:28;;;;;;;1.63;0.90;;;16.50;99.90;;;;;;5029752;28;20719;-70
2021/10/21 06:14:54;;;;;;;1.40;1.07;;;16.50;99.90;;;;;;5029992;28;20204;-70
2021/10/21 06:17:24;;;;;;;0.97;0.80;;;16.50;99.90;;;;;;5030019;28;20274;-70
2021/10/21 06:19:50;;;;;;;4.27;1.27;;;16.50;99.90;;;;;;5029919;28;20232;-70
2021/10/21 06:22:18;;;;;;;1.60;0.97;;;16.50;99.90;;;;;;5030147;28;20295;-70
2021/10/21 06:24:45;;;;;;;5.47;1.20;;;16.50;99.90;;;;;;5030025;28;20208;-70
2021/10/21 06:27:12;;;;;;;2.40;0.93;;;16.50;99.90;;;;;;5029630;28;21094;-70
2021/10/21 06:29:40;;;;;;;1.73;1.10;;;16.50;99.90;;;;;;5029600;28;20205;-70
2021/10/21 06:32:07;;;;;;;0.80;0.80;;;16.50;99.90;;;;;;5029611;28;20278;-70
2021/10/21 06:34:35;;;;;;;0.90;0.90;;;16.50;99.90;;;;;;5029745;28;20208;-70
2021/10/21 06:37:02;;;;;;;2.53;0.80;;;16.50;99.90;;;;;;5029483;28;20757;-70
2021/10/21 06:39:29;;;;;;;1.30;1.00;;;16.50;99.90;;;;;;5029686;28;20212;-70
2021/10/21 06:41:55;;;;;;;2.77;0.90;;;16.50;99.90;;;;;;5029233;28;20641;-70
2021/10/21 06:44:22;;;;;;;2.00;0.70;;;16.50;99.90;;;;;;5029677;28;20264;-70
2021/10/21 06:46:50;;;;;;;1.57;0.90;;;16.60;99.90;;;;;;5029597;28;20274;-70
2021/10/21 06:49:16;;;;;;;0.90;0.80;;;16.60;99.90;;;;;;5029415;28;20209;-70
2021/10/21 06:51:43;;;;;;;1.17;1.13;;;16.50;99.90;;;;;;5029424;28;20232;-70
2021/10/21 06:54:10;;;;;;;1.50;0.60;;;16.50;99.90;;;;;;5029148;28;20259;-70
2021/10/21 06:56:36;;;;;;;3.63;1.20;;;16.50;99.90;;;;;;5029510;28;20201;-70
2021/10/21 06:59:03;;;;;;;1.73;0.60;;;16.50;99.90;;;;;;5029086;28;20774;-70
2021/10/21 07:01:30;;;;;;;2.20;1.10;;;16.40;99.90;;;;;;5029122;28;20275;-70
2021/10/21 07:04:02;;;;;;;0.83;0.57;;;16.30;99.90;;;;;;5028636;28;20761;-70
2021/10/21 07:06:29;;;;;;;2.70;1.10;;;16.30;99.90;;;;;;5029314;28;20201;-71
2021/10/21 07:08:57;;;;;;;1.90;0.90;;;16.30;99.90;;;;;;5029031;28;20208;-70
2021/10/21 07:11:23;;;;;;;2.13;0.70;;;16.20;99.90;;;;;;5029000;28;20298;-70
2021/10/21 07:13:50;;;;;;;2.53;0.93;;;16.20;99.90;;;;;;5029029;28;20212;-70
2021/10/21 07:16:16;;;;;;;6.63;1.00;;;16.10;99.90;;;;;;5028611;28;20662;-70
2021/10/21 07:18:43;;;;;;;2.37;1.00;;;16.00;99.90;;;;;;5028939;28;20258;-70
2021/10/21 07:21:15;;;;;;;6.33;1.43;;;16.00;99.90;;;;;;5028365;28;20832;-70
2021/10/21 07:23:42;;;;;;;5.73;1.00;;;16.00;99.90;;;;;;5028867;28;20204;-70
2021/10/21 07:26:10;;;;;;;4.67;1.10;;;15.90;99.90;;;;;;5028701;28;20205;-70
2021/10/21 07:28:36;;;;;;;3.57;1.03;;;15.90;99.90;;;;;;5028672;28;20215;-70
2021/10/21 07:31:03;;;;;;;4.23;0.83;;;16.00;99.90;;;;;;5028561;28;20279;-70
2021/10/21 07:33:30;;;;;;;3.53;1.20;;;16.10;99.90;;;;;;5028549;28;20269;-70
2021/10/21 07:35:57;;;;;;;4.53;1.00;;;16.10;99.90;;;;;;5028538;28;20209;-70
2021/10/21 07:38:25;;;;;;;3.63;0.83;;;16.10;99.90;;;;;;5028256;28;20245;-70
2021/10/21 07:40:52;;;;;;;4.37;1.10;;;16.10;99.90;;;;;;5028424;28;20246;-70
2021/10/21 07:43:19;;;;;;;4.23;0.83;;;16.10;99.90;;;;;;5028482;28;20243;-70
2021/10/21 07:45:46;;;;;;;2.50;1.10;;;16.10;99.90;;;;;;5028387;28;20224;-70
2021/10/21 07:48:12;;;;;;;2.47;0.80;;;16.20;99.90;;;;;;5028493;28;20209;-70
2021/10/21 07:50:39;;;;;;;2.93;0.63;;;16.20;99.90;;;;;;5028602;28;20209;-70
2021/10/21 07:53:07;;;;;;;4.10;1.00;;;16.10;99.90;;;;;;5028293;28;20272;-70
2021/10/21 07:55:35;;;;;;;2.47;1.00;;;16.20;99.90;;;;;;5028525;28;20216;-70
2021/10/21 07:58:03;;;;;;;4.73;1.03;;;16.10;99.90;;;;;;5028114;28;20262;-70
2021/10/21 08:00:29;;;;;;;1.80;0.97;;;16.10;99.90;;;;;;5027913;28;20711;-70
2021/10/21 08:02:57;;;;;;;3.50;0.93;;;16.10;99.90;;;;;;5027659;28;20719;-70
2021/10/21 08:05:23;;;;;;;6.73;1.00;;;16.10;99.90;;;;;;5028236;28;20286;-70
2021/10/21 08:07:50;;;;;;;14.10;1.60;;;16.20;99.90;;;;;;5028377;28;20618;-74
2021/10/21 08:10:19;;;;;;;2.33;1.27;;;16.10;99.90;;;;;;5028234;28;20641;-74
2021/10/21 08:12:47;;;;;;;3.77;1.10;;;16.20;99.90;;;;;;5028436;28;20240;-75
2021/10/21 08:15:14;;;;;;;7.40;1.43;;;16.20;99.90;;;;;;5028247;28;20208;-74
2021/10/21 08:17:43;;;;;;;9.33;1.30;;;16.30;99.90;;;;;;5028394;28;20216;-74
2021/10/21 08:20:12;;;;;;;8.03;1.07;;;16.30;99.90;;;;;;5028082;28;20224;-74
2021/10/21 08:22:40;;;;;;;8.00;1.20;;;16.30;99.90;;;;;;5028197;28;20219;-74
2021/10/21 08:25:07;;;;;;;18.30;1.67;;;16.30;99.90;;;;;;5028095;28;20258;-73
2021/10/21 08:27:34;;;;;;;7.50;1.30;;;16.40;99.90;;;;;;5027662;28;20639;-73
2021/10/21 08:30:02;;;;;;;6.03;0.90;;;16.30;99.90;;;;;;5027873;28;20236;-73
2021/10/21 08:32:29;;;;;;;3.73;0.77;;;16.20;99.90;;;;;;5027757;28;20243;-73
2021/10/21 08:34:56;;;;;;;6.37;0.80;;;16.20;99.90;;;;;;5028018;28;20205;-73
2021/10/21 08:37:23;;;;;;;5.27;1.00;;;16.20;99.90;;;;;;5027884;28;20209;-73
2021/10/21 08:39:49;;;;;;;8.90;1.03;;;16.10;99.90;;;;;;5027843;28;20585;-73
2021/10/21 08:42:18;;;;;;;5.37;1.13;;;16.10;99.90;;;;;;5027944;28;20237;-73
2021/10/21 08:44:46;;;;;;;4.83;0.70;;;16.10;99.90;;;;;;5027884;28;20229;-73
2021/10/21 08:47:16;;;;;;;4.70;0.70;;;16.10;99.90;;;;;;5027778;28;20270;-72
2021/10/21 08:49:43;;;;;;;6.33;0.90;;;16.20;99.90;;;;;;5027901;28;20201;-72
2021/10/21 08:52:11;;;;;;;6.50;1.13;;;16.20;99.90;;;;;;5031172;28;20228;-72
2021/10/21 08:54:38;;;;;;;4.67;1.07;;;16.10;99.90;;;;;;5031408;28;20218;-73
2021/10/21 08:57:07;;;;;;;5.73;0.93;;;16.10;99.90;;;;;;5031761;28;20267;-73
2021/10/21 08:59:34;;;;;;;3.57;1.17;;;16.10;99.90;;;;;;5031326;28;20201;-73
2021/10/21 09:02:08;;;;;;;7.97;1.20;;;16.10;99.90;;;;;;5031017;28;20652;-73
2021/10/21 09:04:52;;;;;;;10.90;1.20;;;16.00;99.90;;;;;;5030994;28;20235;-71
2021/10/21 09:10:08;;;;;;;5.27;0.63;;;15.90;99.90;;;;;;5031249;28;20200;-71
2021/10/21 09:12:40;;;;;;;4.57;0.93;;;15.90;99.90;;;;;;5031108;28;20605;-71
2021/10/21 09:15:10;;;;;;;10.67;1.10;;;15.90;99.90;;;;;;5031136;28;20224;-71
2021/10/21 09:17:37;;;;;;;6.37;1.20;;;15.80;99.90;;;;;;5031021;28;20667;-71
2021/10/21 09:20:27;;;;;;;3.27;1.00;;;15.80;99.90;;;;;;5031286;28;20229;-71
2021/10/21 09:22:55;;;;;;;8.77;0.83;;;15.80;99.90;;;;;;5031387;28;20197;-71
2021/10/21 09:25:24;;;;;;;2.80;1.20;;;15.80;99.90;;;;;;5030843;28;20745;-71
2021/10/21 09:27:51;;;;;;;5.70;1.20;;;15.80;99.90;;;;;;5031105;28;20208;-71
2021/10/21 09:30:24;;;;;;;4.47;1.00;;;15.80;99.90;;;;;;5031086;28;20212;-71
2021/10/21 09:32:51;;;;;;;4.30;0.83;;;15.70;99.90;;;;;;5030920;28;20231;-71
2021/10/21 09:35:19;;;;;;;1.83;0.90;;;15.60;99.90;;;;;;5030766;28;20201;-71
2021/10/21 09:37:48;;;;;;;4.90;0.90;;;15.60;99.90;;;;;;5030608;28;20215;-71
2021/10/21 09:40:16;;;;;;;7.60;1.00;;;15.60;99.90;;;;;;5030871;28;20578;-71
2021/10/21 09:42:45;;;;;;;5.90;1.30;;;15.60;99.90;;;;;;5030916;28;20703;-71
2021/10/21 09:45:13;;;;;;;6.63;0.70;;;15.70;99.90;;;;;;5030787;28;20256;-71
2021/10/21 09:47:43;;;;;;;8.97;1.07;;;15.70;99.90;;;;;;5030902;28;20215;-71
2021/10/21 09:50:21;;;;;;;13.57;1.33;;;15.70;99.90;;;;;;5031056;28;20220;-71
2021/10/21 09:53:14;;;;;;;2.90;0.60;;;15.70;99.90;;;;;;5030712;28;20220;-71
2021/10/21 09:55:42;;;;;;;2.93;0.80;;;15.70;99.90;;;;;;5030822;28;20247;-71
2021/10/21 09:58:11;;;;;;;5.27;0.87;;;15.80;99.90;;;;;;5030296;28;20224;-71
2021/10/21 10:00:39;;;;;;;4.97;1.03;;;15.70;99.90;;;;;;5030013;28;20236;-71
2021/10/21 10:03:14;;;;;;;7.10;1.20;;;15.60;99.90;;;;;;5029914;28;20254;-72
2021/10/21 10:05:42;;;;;;;8.37;1.37;;;15.60;99.90;;;;;;5030458;28;20200;-71
2021/10/21 10:08:10;;;;;;;3.90;0.90;;;15.60;99.90;;;;;;5030358;28;20244;-71
2021/10/21 10:10:39;;;;;;;10.13;0.90;;;15.60;99.90;;;;;;5030225;28;20209;-71
2021/10/21 10:13:06;;;;;;;6.67;0.90;;;15.70;99.90;;;;;;5029936;28;20292;-71
2021/10/21 10:15:35;;;;;;;6.47;0.90;;;15.70;99.90;;;;;;5030264;28;20205;-71
2021/10/21 10:18:02;;;;;;;9.13;1.60;;;15.60;99.90;;;;;;5029915;28;20300;-71
2021/10/21 10:20:30;;;;;;;5.10;0.90;;;15.50;99.90;;;;;;5030059;28;20241;-71
2021/10/21 10:22:59;;;;;;;6.37;1.00;;;15.50;99.90;;;;;;5030273;28;20236;-71
2021/10/21 10:25:28;;;;;;;9.27;0.87;;;15.40;99.90;;;;;;5030182;28;20288;-71
2021/10/21 10:27:57;;;;;;;6.87;1.10;;;15.20;99.90;;;;;;5029824;28;20205;-71
2021/10/21 10:30:57;;;;;;;1.77;0.50;;;15.00;99.90;;;;;;5029911;28;20200;-71
2021/10/21 10:33:41;;;;;;;8.13;0.90;;;15.00;99.90;;;;;;4987384;28;20222;-70
2021/10/21 10:36:27;;;;;;;3.70;0.80;;;14.80;99.90;;;;;;4987730;28;20210;-70
2021/10/21 10:38:55;;;;;;;2.63;0.77;;;14.60;99.90;;;;;;5016580;28;20207;-71
2021/10/21 10:41:48;;;;;;;1.93;0.50;;;14.50;99.90;;;;;;5029505;28;20310;-70
2021/10/21 10:45:01;;;;;;;4.63;0.70;;;14.20;99.90;;;;;;5029605;28;20232;-70
2021/10/21 10:47:48;;;;;;;2.23;0.70;;;13.90;99.90;;;;;;5029499;28;20597;-71
2021/10/21 10:50:38;;;;;;;4.07;1.00;;;13.20;99.90;;;;;;5029481;28;20208;-71
2021/10/21 10:53:07;;;;;;;4.87;1.03;;;12.40;99.90;;;;;;5028849;28;20228;-71
2021/10/21 10:55:38;;;;;;;3.57;0.70;;;12.20;99.90;;;;;;5029586;28;20211;-70
2021/10/21 10:58:06;;;;;;;0.47;0.43;;;12.10;99.90;;;;;;5029195;28;20557;-70
2021/10/21 11:00:36;;;;;;;0.67;0.43;;;12.10;99.90;;;;;;5029120;28;20241;-70
2021/10/21 11:03:04;;;;;;;1.20;0.30;;;12.10;99.90;;;;;;5029021;28;20766;-70
2021/10/21 11:05:51;;;;;;;7.97;0.80;;;12.10;99.90;;;;;;5029346;28;20263;-70
2021/10/21 11:08:19;;;;;;;0.53;0.53;;;12.20;99.90;;;;;;5029209;28;20197;-70
2021/10/21 11:10:52;;;;;;;0.10;0.10;;;12.10;99.90;;;;;;5028893;28;20213;-70
2021/10/21 11:13:39;;;;;;;0.00;0.00;;;12.20;99.90;;;;;;5028244;28;20393;-70
2021/10/21 11:16:39;;;;;;;0.30;0.30;;;12.20;99.90;;;;;;5028875;28;20605;-69
2021/10/21 11:19:05;;;;;;;1.50;0.13;;;12.30;99.90;;;;;;5028843;28;20740;-69
2021/10/21 11:21:47;;;;;;;0.50;0.10;;;12.30;99.90;;;;;;5029141;28;20286;-70
2021/10/21 11:24:48;;;;;;;0.73;0.20;;;12.30;99.90;;;;;;5028919;28;20251;-70
2021/10/21 11:27:16;;;;;;;0.60;0.33;;;12.20;99.90;;;;;;5028846;28;20582;-70
2021/10/21 11:29:44;;;;;;;0.77;0.30;;;12.20;99.90;;;;;;5028824;28;20205;-69
2021/10/21 11:32:12;;;;;;;3.40;0.30;;;12.10;99.90;;;;;;5028713;28;20279;-69
2021/10/21 11:34:39;;;;;;;0.83;0.37;;;12.10;99.90;;;;;;5028646;28;20275;-70
2021/10/21 11:37:05;;;;;;;0.30;0.30;;;12.00;99.90;;;;;;5028626;28;20247;-70
2021/10/21 11:39:33;;;;;;;1.13;0.40;;;11.90;99.90;;;;;;5028784;28;20205;-69
2021/10/21 11:42:03;;;;;;;0.23;0.20;;;11.90;99.90;;;;;;5028467;28;20308;-70
2021/10/21 11:44:30;;;;;;;0.87;0.20;;;12.00;99.90;;;;;;5028680;28;20323;-70
2021/10/21 11:46:58;;;;;;;1.23;0.47;;;12.00;99.90;;;;;;5028653;28;20208;-70
2021/10/21 11:49:30;;;;;;;3.57;0.57;;;12.10;99.90;;;;;;5028346;28;20201;-70
2021/10/21 11:52:03;;;;;;;0.30;0.20;;;12.20;99.90;;;;;;5028346;28;20201;-70
2021/10/21 11:54:30;;;;;;;0.20;0.20;;;12.30;99.90;;;;;;5028527;28;20311;-70
2021/10/21 11:56:57;;;;;;;0.77;0.23;;;12.30;99.90;;;;;;5027955;28;20213;-70
2021/10/21 11:59:34;;;;;;;1.27;0.37;;;12.40;99.90;;;;;;5028536;28;20216;-70
2021/10/21 12:02:10;;;;;;;2.07;0.40;;;12.30;99.90;;;;;;5028219;28;20267;-70
2021/10/21 12:04:39;;;;;;;2.07;0.40;;;12.30;99.90;;;;;;5028282;28;20577;-70
2021/10/21 12:07:06;;;;;;;2.00;0.50;;;12.40;99.90;;;;;;5028208;28;20201;-69
2021/10/21 12:09:34;;;;;;;1.20;0.63;;;12.40;99.90;;;;;;5028010;28;20208;-70
2021/10/21 12:12:02;;;;;;;1.60;0.47;;;12.60;99.90;;;;;;5027491;28;20249;-71
2021/10/21 12:14:29;;;;;;;1.43;0.60;;;12.70;99.90;;;;;;5028257;28;20232;-70
2021/10/21 12:16:57;;;;;;;1.83;0.73;;;12.70;99.90;;;;;;5027709;28;20975;-70
2021/10/21 12:19:24;;;;;;;2.47;0.50;;;12.70;99.90;;;;;;5028024;28;20279;-70
2021/10/21 12:21:52;;;;;;;1.27;0.80;;;12.60;99.90;;;;;;5028093;28;20205;-71
2021/10/21 12:24:20;;;;;;;2.57;0.97;;;12.70;99.90;;;;;;5028786;28;20208;-70
2021/10/21 12:26:53;;;;;;;0.67;0.60;;;12.70;99.90;;;;;;5032037;28;20319;-70
2021/10/21 12:29:21;;;;;;;3.03;0.80;;;12.70;99.90;;;;;;5032104;28;20211;-70
2021/10/21 12:31:49;;;;;;;1.03;0.60;;;12.70;99.90;;;;;;5031975;28;20213;-70
2021/10/21 12:34:24;;;;;;;3.10;0.80;;;12.70;99.90;;;;;;5031625;28;20770;-70
2021/10/21 12:36:54;;;;;;;1.03;0.70;;;12.70;99.90;;;;;;5032068;28;20192;-70
2021/10/21 12:39:25;;;;;;;2.77;0.93;;;12.80;99.90;;;;;;5031598;28;20580;-70
2021/10/21 12:41:54;;;;;;;2.17;0.53;;;12.80;99.90;;;;;;5031672;28;20219;-70
2021/10/21 12:44:23;;;;;;;2.20;0.70;;;12.80;99.90;;;;;;5031869;28;20267;-70
2021/10/21 12:46:50;;;;;;;1.20;0.77;;;12.90;99.90;;;;;;5031399;28;20221;-71
2021/10/21 12:49:18;;;;;;;1.70;0.70;;;12.90;99.90;;;;;;5031272;28;20221;-71
2021/10/21 12:51:47;;;;;;;1.70;0.67;;;13.10;99.90;;;;;;5027298;28;20278;-71
2021/10/21 12:54:25;;;;;;;5.63;0.90;;;13.20;99.90;;;;;;5028274;28;20239;-70
2021/10/21 12:56:57;;;;;;;1.63;0.80;;;13.30;99.90;;;;;;5027856;28;20254;-70